Cupertino, CA (95014)

6:25 PM PDT on September 19, 2014 (GMT -0700)
Monta Vista | Change Station
CLOSE
Current Station
Personal Weather Station
Location: Cupertino, CA
Elevation: 300 ft
Nearby Weather Stations

Elev 300 ft 37.32 °N, 122.05 °W | Updated 53 seconds ago

Partly Cloudy
Partly Cloudy
77.9 °F
Feels Like 80 °F
N
0.7
Wind Variable Wind from East
Gusts 3.1 mph

Today
High -- | Low -- °F
--% Chance of Precip.
Yesterday
High -- | Low -- °F
Precip. -- in
6:53 AM 7:09 PM
Waning Crescent, 15% visible
Pressure 29.87 in
Visibility 10.0 miles
Clouds Clear
Heat Index 80 °F
Dew Point 64 °F
Humidity 62%
Rainfall 0.00 in
Snow Depth 0 in , 0 in , 0 in
UV 1 out of 12
Pollen 4.70 out of 12
Ozone Good
PM2.5 Good
Flu Activity Not available.
METAR KNUQ 200056Z 34013G18KT 10SM CLR 21/17 A2986 RMK AO2 SLP115 T02110167

More Conditions Fewer Conditions

Pressure 29.87 in
Visibility 10.0 miles
Clouds Clear
Heat Index 80 °F
Dew Point 64 °F
Humidity 62%
Rainfall 0.00 in
Snow Depth 0 in , 0 in , 0 in
UV 1 out of 12
Pollen 4.70 out of 12
Ozone Good
PM2.5 Good
Flu Activity Not available.
METAR KNUQ 200056Z 34013G18KT 10SM CLR 21/17 A2986 RMK AO2 SLP115 T02110167

More Conditions Fewer Conditions

10-Day Weather Forecast

Almanac

Astronomy

Sep. 19, 2014 Rise Set
Actual Time 6:53 AM PDT 7:09 PM PDT
Civil Twilight 6:27 AM PDT 7:35 PM PDT
Nautical Twilight 5:57 AM PDT 8:06 PM PDT
Astronomical Twilight 5:25 AM PDT 8:37 PM PDT
Moon 2:48 AM PDT (9/19) 4:37 PM PDT (9/19)
Length of Visible Light 13h 08m
Length of Day
12h 15m
Tomorrow will be 2m 22s shorter.
Waning Crescent, 15% of the Moon is Illuminated
Today
Waning Crescent
Sep 24
New
Oct 1
First Quarter
Oct 8
Full
Oct 15
Last Quarter

Today's Extremes

State Highs State Lows

Community

WunderPhotos

Upload Photos

1,754,757 photos uploaded!

WunderBlogs® & News

Nearby

Air Quality

  Air Quality AQ Index Pollutant
Yesterday Good
OZONE
Yesterday Good
PM2.5
Current Good
PM2.5
Current Good
OZONE
Friday Good
OZONE
Saturday Moderate
PM2.5
Sunday Moderate
PM2.5
Monday Good
OZONE
Tuesday Good
OZONE
Wednesday Good
OZONE

Snow Depth

Station Depth Elevation
Burnside Lake 0 in 8139 ft
Rubicon #2 0 in 7500 ft
Adin Mountain 0 in 6200 ft
Spratt Creek 0 in 6200 ft
Leavitt Lake 0 in 9400 ft

Earthquake Activity

City Distance Mag. Time & Date
Livermore, California 31 miles 2.6 3:37 AM PDT
2014-09-19
The Geysers, California 106 miles 2.5 11:29 PM PDT
2014-09-17
Cobb, California 108 miles 2.7 1:23 PM PDT
2014-09-16
Minimum magnitude displayed is 2.5.

Coastal Water Temperatures

Place Temperature
No Stations Reporting

Nearby Weather Stations